sensor_id;sensor_type;location;lat;lon;timestamp;P1;durP1;ratioP1;P2;durP2;ratioP2
81039;SDS011;70525;53.224;8.782;2024-01-11T00:18:44;31.30;;;12.27;;
81039;SDS011;70525;53.224;8.782;2024-01-11T00:48:46;26.20;;;11.90;;
81039;SDS011;70525;53.224;8.782;2024-01-11T01:18:48;21.60;;;8.67;;
81039;SDS011;70525;53.224;8.782;2024-01-11T01:48:54;19.70;;;7.07;;
81039;SDS011;70525;53.224;8.782;2024-01-11T02:18:56;19.30;;;7.57;;
81039;SDS011;70525;53.224;8.782;2024-01-11T02:48:58;16.90;;;10.00;;
81039;SDS011;70525;53.224;8.782;2024-01-11T03:19:00;14.43;;;6.67;;
81039;SDS011;70525;53.224;8.782;2024-01-11T03:49:02;12.23;;;6.13;;
81039;SDS011;70525;53.224;8.782;2024-01-11T04:19:03;14.30;;;5.47;;
81039;SDS011;70525;53.224;8.782;2024-01-11T04:49:05;14.07;;;6.63;;
81039;SDS011;70525;53.224;8.782;2024-01-11T05:19:07;14.93;;;6.23;;
81039;SDS011;70525;53.224;8.782;2024-01-11T05:49:09;22.00;;;9.00;;
81039;SDS011;70525;53.224;8.782;2024-01-11T06:19:10;20.87;;;7.43;;
81039;SDS011;70525;53.224;8.782;2024-01-11T06:49:12;22.67;;;6.93;;
81039;SDS011;70525;53.224;8.782;2024-01-11T07:19:14;30.53;;;9.37;;
81039;SDS011;70525;53.224;8.782;2024-01-11T07:49:16;27.97;;;9.77;;
81039;SDS011;70525;53.224;8.782;2024-01-11T08:19:17;29.87;;;11.20;;
81039;SDS011;70525;53.224;8.782;2024-01-11T08:49:19;27.23;;;9.17;;
81039;SDS011;70525;53.224;8.782;2024-01-11T09:19:21;32.97;;;8.30;;
81039;SDS011;70525;53.224;8.782;2024-01-11T09:49:22;22.63;;;8.93;;
81039;SDS011;70525;53.224;8.782;2024-01-11T10:49:26;32.30;;;10.90;;
81039;SDS011;70525;53.224;8.782;2024-01-11T11:19:28;34.33;;;11.23;;
81039;SDS011;70525;53.224;8.782;2024-01-11T12:20:06;32.70;;;10.33;;
81039;SDS011;70525;53.224;8.782;2024-01-11T12:50:08;27.47;;;10.17;;
81039;SDS011;70525;53.224;8.782;2024-01-11T13:20:10;31.90;;;11.53;;
81039;SDS011;70525;53.224;8.782;2024-01-11T13:50:12;24.70;;;9.83;;
81039;SDS011;70525;53.224;8.782;2024-01-11T14:20:14;21.00;;;8.97;;
81039;SDS011;70525;53.224;8.782;2024-01-11T14:50:16;20.77;;;8.63;;
81039;SDS011;70525;53.224;8.782;2024-01-11T15:20:18;23.77;;;9.70;;
81039;SDS011;70525;53.224;8.782;2024-01-11T15:50:20;26.13;;;9.10;;
81039;SDS011;70525;53.224;8.782;2024-01-11T16:20:21;26.80;;;11.00;;
81039;SDS011;70525;53.224;8.782;2024-01-11T16:50:23;21.50;;;7.97;;
81039;SDS011;70525;53.224;8.782;2024-01-11T17:20:25;21.60;;;7.97;;
81039;SDS011;70525;53.224;8.782;2024-01-11T17:50:27;18.17;;;7.60;;
81039;SDS011;70525;53.224;8.782;2024-01-11T18:20:28;18.23;;;7.23;;
81039;SDS011;70525;53.224;8.782;2024-01-11T18:50:30;13.83;;;6.83;;
81039;SDS011;70525;53.224;8.782;2024-01-11T19:20:31;16.63;;;6.90;;
81039;SDS011;70525;53.224;8.782;2024-01-11T19:50:33;17.23;;;8.10;;
81039;SDS011;70525;53.224;8.782;2024-01-11T20:20:35;13.47;;;6.37;;
81039;SDS011;70525;53.224;8.782;2024-01-11T20:50:37;13.53;;;7.40;;
81039;SDS011;70525;53.224;8.782;2024-01-11T21:20:39;9.43;;;5.73;;
81039;SDS011;70525;53.224;8.782;2024-01-11T21:50:41;14.17;;;5.90;;
81039;SDS011;70525;53.224;8.782;2024-01-11T22:20:43;11.73;;;5.17;;
81039;SDS011;70525;53.224;8.782;2024-01-11T22:50:46;14.60;;;6.83;;
81039;SDS011;70525;53.224;8.782;2024-01-11T23:20:47;10.47;;;4.70;;
81039;SDS011;70525;53.224;8.782;2024-01-11T23:50:49;8.47;;;4.10;;
